Time;durP1;ratioP1;P1;durP2;ratioP2;P2;SDS_P1;SDS_P2;PMS_P1;PMS_P2;Temp;Humidity;BMP_temperature;BMP_pressure;BME280_temperature;BME280_humidity;BME280_pressure;Samples;Min_cycle;Max_cycle;Signal;HPM_P1;HPM_P2
2022/11/20 00:00:11;;;;;;;67.35;36.58;;;-4.00;99.90;;;;;;2073068;28;20036;-69
2022/11/20 00:01:18;;;;;;;71.95;36.80;;;-4.00;99.90;;;;;;2072680;28;20040;-69
2022/11/20 00:02:19;;;;;;;70.38;35.97;;;-4.00;99.90;;;;;;2072228;28;20037;-68
2022/11/20 00:03:19;;;;;;;67.22;36.03;;;-4.00;99.90;;;;;;2072080;28;20109;-68
2022/11/20 00:04:20;;;;;;;70.30;36.20;;;-4.00;99.90;;;;;;2071463;28;20049;-70
2022/11/20 00:05:21;;;;;;;68.43;35.35;;;-4.00;99.90;;;;;;2071815;28;20034;-68
2022/11/20 00:06:23;;;;;;;76.45;37.10;;;-4.00;99.90;;;;;;2063794;28;20113;-68
2022/11/20 00:07:24;;;;;;;70.50;37.03;;;-4.00;99.90;;;;;;2064053;28;20101;-69
2022/11/20 00:08:24;;;;;;;71.55;38.60;;;-4.00;99.90;;;;;;2071941;28;20413;-68
2022/11/20 00:09:25;;;;;;;69.78;37.20;;;-4.00;99.90;;;;;;2072026;28;20018;-68
2022/11/20 00:10:26;;;;;;;70.55;37.33;;;-4.00;99.90;;;;;;2071963;28;20029;-69
2022/11/20 00:11:28;;;;;;;73.75;36.97;;;-4.00;99.90;;;;;;2072324;28;20630;-68
2022/11/20 00:12:29;;;;;;;75.28;38.00;;;-4.00;99.90;;;;;;2064344;28;20040;-68
2022/11/20 00:13:30;;;;;;;73.53;38.33;;;-4.00;99.90;;;;;;2064794;28;20026;-69
2022/11/20 00:14:31;;;;;;;73.35;37.85;;;-4.00;99.90;;;;;;2064520;28;20069;-68
2022/11/20 00:15:32;;;;;;;69.68;35.60;;;-4.00;99.90;;;;;;2064755;28;20030;-67
2022/11/20 00:16:33;;;;;;;68.63;35.85;;;-4.00;99.90;;;;;;2073312;28;20026;-70
2022/11/20 00:17:34;;;;;;;71.43;35.10;;;-4.00;99.90;;;;;;2072886;28;20036;-67
2022/11/20 00:18:35;;;;;;;70.28;35.55;;;-4.00;99.90;;;;;;2072988;28;20030;-68
2022/11/20 00:19:36;;;;;;;64.70;33.95;;;-4.00;99.90;;;;;;2072114;28;20144;-67
2022/11/20 00:20:36;;;;;;;66.13;33.10;;;-4.00;99.90;;;;;;2071564;28;20503;-69
2022/11/20 00:21:37;;;;;;;64.60;33.08;;;-4.00;99.90;;;;;;2072507;28;20144;-71
2022/11/20 00:22:38;;;;;;;61.58;31.08;;;-3.90;99.90;;;;;;2072622;28;20080;-69
2022/11/20 00:23:39;;;;;;;62.13;31.10;;;-3.90;99.90;;;;;;2072474;28;20489;-69
2022/11/20 00:24:39;;;;;;;61.20;30.48;;;-3.90;99.90;;;;;;2071738;28;20778;-68
2022/11/20 00:25:40;;;;;;;59.47;29.38;;;-3.90;99.90;;;;;;2071818;28;20037;-70
2022/11/20 00:26:41;;;;;;;57.15;29.45;;;-3.90;99.90;;;;;;2072654;28;20017;-68
2022/11/20 00:27:42;;;;;;;56.33;28.27;;;-3.90;99.90;;;;;;2072550;28;20246;-68
2022/11/20 00:28:44;;;;;;;57.85;28.17;;;-3.90;99.90;;;;;;2072608;28;20026;-68
2022/11/20 00:29:45;;;;;;;55.83;28.20;;;-3.80;99.90;;;;;;2072294;28;20026;-68
2022/11/20 00:30:45;;;;;;;56.60;28.50;;;-3.80;99.90;;;;;;2071802;28;20101;-68
2022/11/20 00:31:46;;;;;;;59.72;30.42;;;-3.80;99.90;;;;;;2063859;28;20467;-68
2022/11/20 00:32:47;;;;;;;58.33;28.98;;;-3.80;99.90;;;;;;2072035;28;20034;-67
2022/11/20 00:33:48;;;;;;;55.15;28.52;;;-3.80;99.90;;;;;;2072573;28;20025;-69
2022/11/20 00:34:48;;;;;;;55.53;28.38;;;-3.80;99.90;;;;;;2071930;28;20026;-68
2022/11/20 00:35:49;;;;;;;57.88;28.73;;;-3.80;99.90;;;;;;2072300;28;20133;-69
2022/11/20 00:36:50;;;;;;;55.60;28.52;;;-3.80;99.90;;;;;;2072266;28;20435;-68
2022/11/20 00:37:50;;;;;;;57.70;28.27;;;-3.80;99.90;;;;;;2072578;28;20041;-68
2022/11/20 00:38:56;;;;;;;56.17;27.75;;;-3.70;99.90;;;;;;2072077;28;20041;-69
2022/11/20 00:39:57;;;;;;;54.00;27.42;;;-3.70;99.90;;;;;;2072239;28;20049;-69
2022/11/20 00:41:03;;;;;;;57.75;28.02;;;-3.70;99.90;;;;;;2072310;28;20389;-69
2022/11/20 00:42:03;;;;;;;56.65;28.85;;;-3.70;99.90;;;;;;2072379;28;20029;-69
2022/11/20 00:43:04;;;;;;;56.88;28.40;;;-3.70;99.90;;;;;;2072448;28;20224;-69
2022/11/20 00:44:05;;;;;;;55.42;28.60;;;-3.70;99.90;;;;;;2072238;28;20029;-69
2022/11/20 00:45:06;;;;;;;56.03;28.35;;;-3.70;99.90;;;;;;2072218;28;20711;-68
2022/11/20 00:46:09;;;;;;;55.33;28.15;;;-3.70;99.90;;;;;;2072357;28;20034;-69
2022/11/20 00:47:10;;;;;;;53.97;27.27;;;-3.70;99.90;;;;;;2071617;28;20025;-69
2022/11/20 00:48:11;;;;;;;54.17;28.08;;;-3.70;99.90;;;;;;2073178;28;20038;-68
2022/11/20 00:49:11;;;;;;;52.30;27.20;;;-3.70;99.90;;;;;;2075900;28;20021;-68
2022/11/20 00:50:12;;;;;;;53.78;27.02;;;-3.70;99.90;;;;;;2076475;28;20022;-69
2022/11/20 00:51:19;;;;;;;57.13;27.85;;;-3.80;99.90;;;;;;2073087;28;20396;-68
2022/11/20 00:52:20;;;;;;;50.17;25.90;;;-3.80;99.90;;;;;;2071703;28;20568;-67
2022/11/20 00:53:21;;;;;;;51.35;26.45;;;-3.80;99.90;;;;;;2071741;28;20030;-69
2022/11/20 00:54:21;;;;;;;58.78;27.92;;;-3.80;99.90;;;;;;2071330;28;20033;-69
2022/11/20 00:55:22;;;;;;;56.47;28.20;;;-3.80;99.90;;;;;;2071554;28;20030;-68
2022/11/20 00:56:24;;;;;;;51.60;26.65;;;-3.80;99.90;;;;;;2071598;28;20029;-69
2022/11/20 00:57:25;;;;;;;54.03;28.08;;;-3.80;99.90;;;;;;2072123;28;20068;-68
2022/11/20 00:58:30;;;;;;;55.70;27.67;;;-3.80;99.90;;;;;;2071663;28;20053;-68
2022/11/20 00:59:31;;;;;;;53.67;26.55;;;-3.80;99.90;;;;;;2071736;28;20045;-69
2022/11/20 01:00:31;;;;;;;55.35;27.15;;;-3.80;99.90;;;;;;2071471;28;20041;-69
2022/11/20 01:01:32;;;;;;;55.55;27.77;;;-3.80;99.90;;;;;;2071354;28;20029;-69
2022/11/20 01:02:33;;;;;;;56.40;28.15;;;-3.80;99.90;;;;;;2071620;28;20033;-68
2022/11/20 01:03:36;;;;;;;55.05;27.50;;;-3.80;99.90;;;;;;2063242;28;20030;-68
2022/11/20 01:04:37;;;;;;;55.80;27.48;;;-3.80;99.90;;;;;;2055414;28;20043;-71
2022/11/20 01:05:38;;;;;;;53.45;27.10;;;-3.80;99.90;;;;;;2063389;28;20026;-68
2022/11/20 01:06:39;;;;;;;56.47;28.52;;;-3.80;99.90;;;;;;2063124;28;20097;-69
2022/11/20 01:07:40;;;;;;;54.58;27.00;;;-3.80;99.90;;;;;;2071288;28;20077;-69
2022/11/20 01:08:41;;;;;;;55.63;28.05;;;-3.80;99.90;;;;;;2072738;28;20046;-69
2022/11/20 01:09:41;;;;;;;54.63;27.52;;;-3.80;99.90;;;;;;2072805;28;20405;-69
2022/11/20 01:10:42;;;;;;;53.22;26.67;;;-3.90;99.90;;;;;;2072827;28;20040;-69
2022/11/20 01:11:44;;;;;;;56.58;28.98;;;-3.80;99.90;;;;;;2072845;28;20403;-68
2022/11/20 01:13:36;;;;;;;53.78;26.52;;;-3.80;99.90;;;;;;2073573;28;20026;-67
2022/11/20 01:14:07;;;;;;;;;;;-3.90;99.90;;;;;;2074122;28;20393;-68
2022/11/20 01:15:08;;;;;;;56.78;27.67;;;-3.90;99.90;;;;;;2072499;28;19913;-67
2022/11/20 01:16:15;;;;;;;57.45;28.70;;;-3.90;99.90;;;;;;2072324;28;20188;-68
2022/11/20 01:17:16;;;;;;;56.45;27.83;;;-3.90;99.90;;;;;;2072327;28;20038;-68
2022/11/20 01:18:17;;;;;;;56.65;28.88;;;-3.90;99.90;;;;;;2071521;28;20025;-68
2022/11/20 01:19:21;;;;;;;60.92;29.33;;;-3.90;99.90;;;;;;2063179;28;20045;-69
2022/11/20 01:20:21;;;;;;;58.50;29.00;;;-3.90;99.90;;;;;;2071571;28;20036;-68
2022/11/20 01:21:25;;;;;;;59.67;29.23;;;-3.90;99.90;;;;;;2071847;28;20026;-68
2022/11/20 01:22:26;;;;;;;57.95;28.70;;;-3.90;99.90;;;;;;2071935;28;20034;-67
2022/11/20 01:23:26;;;;;;;59.30;29.13;;;-3.90;99.90;;;;;;2071854;28;20057;-69
2022/11/20 01:24:27;;;;;;;59.72;29.05;;;-3.90;99.90;;;;;;2070741;28;20512;-68
2022/11/20 01:25:28;;;;;;;61.78;30.30;;;-3.90;99.90;;;;;;2071100;28;20030;-67
2022/11/20 01:26:35;;;;;;;58.20;28.58;;;-3.90;99.90;;;;;;2071177;28;20084;-67
2022/11/20 01:27:35;;;;;;;58.30;29.13;;;-3.90;99.90;;;;;;2071325;28;20065;-67
2022/11/20 01:28:38;;;;;;;60.42;29.77;;;-3.90;99.90;;;;;;2071317;28;20033;-68
2022/11/20 01:29:39;;;;;;;58.53;28.65;;;-3.90;99.90;;;;;;2070856;28;20552;-68
2022/11/20 01:30:40;;;;;;;63.13;30.13;;;-3.90;99.90;;;;;;2071001;28;20104;-69
2022/11/20 01:31:41;;;;;;;59.97;29.08;;;-3.90;99.90;;;;;;2071884;28;20511;-69
2022/11/20 01:32:42;;;;;;;57.60;28.42;;;-3.90;99.90;;;;;;2071827;28;20184;-67
2022/11/20 01:33:44;;;;;;;55.85;27.48;;;-3.90;99.90;;;;;;2071689;28;20602;-69
2022/11/20 01:34:45;;;;;;;55.80;27.10;;;-4.00;99.90;;;;;;2062590;28;20550;-68
2022/11/20 01:35:45;;;;;;;61.75;29.60;;;-4.00;99.90;;;;;;2062991;28;20061;-67
2022/11/20 01:36:46;;;;;;;58.75;27.80;;;-4.00;99.90;;;;;;2071065;28;20026;-67
2022/11/20 01:37:47;;;;;;;55.85;27.95;;;-4.00;99.90;;;;;;2071571;28;20026;-69
2022/11/20 01:38:54;;;;;;;57.22;27.80;;;-3.90;99.90;;;;;;2071707;28;20038;-68
2022/11/20 01:39:55;;;;;;;61.30;29.10;;;-3.90;99.90;;;;;;2071766;28;20033;-68
2022/11/20 01:40:56;;;;;;;60.20;29.13;;;-4.00;99.90;;;;;;2070975;28;20038;-68
2022/11/20 01:43:23;;;;;;;57.45;27.80;;;-4.00;99.90;;;;;;2071666;28;20130;-67
2022/11/20 01:44:57;;;;;;;60.15;27.85;;;-4.00;99.90;;;;;;2071315;28;20084;-67
2022/11/20 01:46:17;;;;;;;60.15;28.75;;;-4.00;99.90;;;;;;2062892;28;20385;-68
2022/11/20 01:47:35;;;;;;;60.25;28.75;;;-4.00;99.90;;;;;;2065829;28;20393;-67
2022/11/20 01:48:42;;;;;;;63.25;28.90;;;-4.00;99.90;;;;;;2071797;28;20129;-67
2022/11/20 01:49:52;;;;;;;60.63;28.13;;;-4.00;99.90;;;;;;2070911;28;20732;-69
2022/11/20 01:50:53;;;;;;;61.67;28.92;;;-4.00;99.90;;;;;;2071502;28;20049;-68
2022/11/20 01:52:01;;;;;;;58.17;28.52;;;-4.00;99.90;;;;;;2072587;28;20026;-68
2022/11/20 01:53:06;;;;;;;60.97;29.23;;;-4.00;99.90;;;;;;2072542;28;20026;-68
2022/11/20 01:54:13;;;;;;;60.75;28.17;;;-4.00;99.90;;;;;;2072223;28;20028;-68
2022/11/20 01:55:21;;;;;;;59.97;29.13;;;-4.00;99.90;;;;;;2073068;28;20565;-68
2022/11/20 01:56:23;;;;;;;60.00;28.63;;;-4.00;99.90;;;;;;2073445;28;20040;-68
2022/11/20 01:57:27;;;;;;;58.63;28.67;;;-4.00;99.90;;;;;;2072737;28;20075;-68
2022/11/20 01:58:35;;;;;;;53.72;27.42;;;-4.00;99.90;;;;;;2072387;28;20113;-67
2022/11/20 01:59:38;;;;;;;59.70;28.27;;;-4.00;99.90;;;;;;2072701;28;20026;-68
2022/11/20 02:00:40;;;;;;;55.80;28.17;;;-4.00;99.90;;;;;;2064669;28;20523;-68
2022/11/20 02:01:41;;;;;;;60.33;29.23;;;-4.10;99.90;;;;;;2056669;28;20031;-67
2022/11/20 02:02:50;;;;;;;58.47;29.10;;;-4.10;99.90;;;;;;2064719;28;20105;-68
2022/11/20 02:03:51;;;;;;;60.55;28.42;;;-4.10;99.90;;;;;;2073068;28;20036;-68
2022/11/20 02:04:56;;;;;;;58.88;27.83;;;-4.10;99.90;;;;;;2074086;28;20033;-68
2022/11/20 02:06:14;;;;;;;56.10;27.98;;;-4.10;99.90;;;;;;2073636;28;20057;-68
2022/11/20 02:07:16;;;;;;;58.63;28.45;;;-4.10;99.90;;;;;;2074035;28;20037;-69
2022/11/20 02:08:17;;;;;;;57.80;27.90;;;-4.10;99.90;;;;;;2074478;28;20034;-68
2022/11/20 02:09:18;;;;;;;57.10;27.77;;;-4.10;99.90;;;;;;2074387;28;20025;-68
2022/11/20 02:10:19;;;;;;;59.78;28.63;;;-4.10;99.90;;;;;;2074707;28;20022;-68
2022/11/20 02:11:20;;;;;;;56.70;27.58;;;-4.10;99.90;;;;;;2072731;28;20038;-67
2022/11/20 02:13:43;;;;;;;61.17;28.30;;;-4.10;99.90;;;;;;2071703;28;20033;-68
2022/11/20 02:14:44;;;;;;;58.20;28.52;;;-4.10;99.90;;;;;;2070244;28;20108;-68
2022/11/20 02:15:45;;;;;;;56.17;26.65;;;-4.10;99.90;;;;;;2070988;28;20029;-68
2022/11/20 02:16:48;;;;;;;60.42;28.52;;;-4.10;99.90;;;;;;2071076;28;20072;-68
2022/11/20 02:17:48;;;;;;;62.50;29.02;;;-4.10;99.90;;;;;;2071428;28;20026;-69
2022/11/20 02:18:50;;;;;;;56.72;27.70;;;-4.10;99.90;;;;;;2072085;28;20057;-68
2022/11/20 02:19:51;;;;;;;56.75;27.27;;;-4.10;99.90;;;;;;2071056;28;20053;-68
2022/11/20 02:21:03;;;;;;;61.00;28.00;;;-4.10;99.90;;;;;;2071077;28;20049;-68
2022/11/20 02:22:07;;;;;;;59.10;27.45;;;-4.10;99.90;;;;;;2071803;28;20034;-70
2022/11/20 02:23:28;;;;;;;58.63;28.33;;;-4.10;99.90;;;;;;2071808;28;20076;-68
2022/11/20 02:24:29;;;;;;;59.35;27.77;;;-4.10;99.90;;;;;;2071548;28;20034;-69
2022/11/20 02:25:32;;;;;;;56.78;27.42;;;-4.10;99.90;;;;;;2071749;28;20036;-67
2022/11/20 02:26:51;;;;;;;58.90;27.63;;;-4.10;99.90;;;;;;2072852;28;20026;-67
2022/11/20 02:27:52;;;;;;;57.35;28.10;;;-4.10;99.90;;;;;;2072421;28;20026;-65
2022/11/20 02:28:54;;;;;;;58.58;27.70;;;-4.10;99.90;;;;;;2071868;28;20484;-65
2022/11/20 02:30:02;;;;;;;55.88;27.27;;;-4.10;99.90;;;;;;2063740;28;20050;-65
2022/11/20 02:31:03;;;;;;;56.05;26.67;;;-4.10;99.90;;;;;;2072103;28;20022;-65
2022/11/20 02:32:03;;;;;;;53.55;26.95;;;-4.10;99.90;;;;;;2072094;28;20030;-66
2022/11/20 02:33:04;;;;;;;53.20;25.83;;;-4.10;99.90;;;;;;2072524;28;20484;-65
2022/11/20 02:34:05;;;;;;;54.28;26.45;;;-4.10;99.90;;;;;;2072362;28;20104;-65
2022/11/20 02:35:30;;;;;;;56.95;27.42;;;-4.10;99.90;;;;;;2072445;28;20038;-65
2022/11/20 02:36:33;;;;;;;52.92;25.55;;;-4.10;99.90;;;;;;2073565;28;20072;-66
2022/11/20 02:37:38;;;;;;;55.45;26.92;;;-4.10;99.90;;;;;;2073847;28;20068;-67
2022/11/20 02:38:39;;;;;;;56.30;27.42;;;-4.10;99.90;;;;;;2073846;28;20022;-66
2022/11/20 02:39:40;;;;;;;57.47;26.63;;;-4.10;99.90;;;;;;2073920;28;20065;-66
2022/11/20 02:40:41;;;;;;;52.63;26.33;;;-4.20;99.90;;;;;;2073696;28;20030;-65
2022/11/20 02:41:42;;;;;;;56.05;27.73;;;-4.20;99.90;;;;;;2074095;28;20073;-66
2022/11/20 02:42:42;;;;;;;53.28;26.20;;;-4.20;99.90;;;;;;2074733;28;20042;-66
2022/11/20 02:43:43;;;;;;;55.38;27.10;;;-4.20;99.90;;;;;;2074345;28;20029;-67
2022/11/20 02:44:44;;;;;;;54.65;27.00;;;-4.20;99.90;;;;;;2072479;28;20037;-67
2022/11/20 02:45:44;;;;;;;55.13;27.33;;;-4.20;99.90;;;;;;2073663;28;20026;-66
2022/11/20 02:46:45;;;;;;;54.53;26.80;;;-4.20;99.90;;;;;;2073115;28;20030;-70
2022/11/20 02:47:46;;;;;;;53.38;26.48;;;-4.20;99.90;;;;;;2073150;28;20404;-67
2022/11/20 02:48:47;;;;;;;56.13;28.17;;;-4.20;99.90;;;;;;2073563;28;20034;-66
2022/11/20 02:49:47;;;;;;;53.17;26.70;;;-4.20;99.90;;;;;;2073193;28;20030;-66
2022/11/20 02:50:48;;;;;;;53.33;26.58;;;-4.20;99.90;;;;;;2064477;28;20045;-66
2022/11/20 02:51:49;;;;;;;56.13;27.20;;;-4.30;99.90;;;;;;2064429;28;20037;-66
2022/11/20 02:52:49;;;;;;;54.97;26.42;;;-4.30;99.90;;;;;;2072674;28;20508;-67
2022/11/20 02:53:50;;;;;;;55.20;27.63;;;-4.20;99.90;;;;;;2072656;28;20550;-66
2022/11/20 02:54:51;;;;;;;54.13;27.23;;;-4.30;99.90;;;;;;2072722;28;20034;-66
2022/11/20 02:55:52;;;;;;;54.72;27.38;;;-4.30;99.90;;;;;;2073249;28;20124;-66
2022/11/20 02:56:53;;;;;;;58.17;28.15;;;-4.30;99.90;;;;;;2072640;28;20026;-66
2022/11/20 02:57:54;;;;;;;59.33;29.30;;;-4.30;99.90;;;;;;2072398;28;20030;-66
2022/11/20 02:58:55;;;;;;;55.92;27.77;;;-4.30;99.90;;;;;;2073143;28;20373;-67
2022/11/20 02:59:56;;;;;;;61.90;29.95;;;-4.30;99.90;;;;;;2072204;28;20034;-66
2022/11/20 03:00:56;;;;;;;57.42;28.88;;;-4.40;99.90;;;;;;2072563;28;20611;-67
2022/11/20 03:01:57;;;;;;;61.58;30.30;;;-4.40;99.90;;;;;;2064293;28;20034;-67
2022/11/20 03:02:58;;;;;;;63.25;31.05;;;-4.40;99.90;;;;;;2064445;28;20764;-67
2022/11/20 03:03:59;;;;;;;63.85;30.92;;;-4.50;99.90;;;;;;2072276;28;20026;-66
2022/11/20 03:04:59;;;;;;;65.25;30.45;;;-4.50;99.90;;;;;;2072191;28;20041;-66
2022/11/20 03:06:00;;;;;;;60.35;29.35;;;-4.50;99.90;;;;;;2072339;28;20413;-65
2022/11/20 03:07:01;;;;;;;59.38;28.75;;;-4.60;99.90;;;;;;2073187;28;20080;-65
2022/11/20 03:08:01;;;;;;;59.85;29.52;;;-4.60;99.90;;;;;;2072464;28;20022;-67
2022/11/20 03:09:02;;;;;;;58.20;29.10;;;-4.60;99.90;;;;;;2072545;28;20482;-67
2022/11/20 03:10:04;;;;;;;59.85;29.77;;;-4.60;99.90;;;;;;2064170;28;20050;-67
2022/11/20 03:11:07;;;;;;;61.60;29.75;;;-4.60;99.90;;;;;;2056273;28;20033;-68
2022/11/20 03:12:07;;;;;;;60.65;29.88;;;-4.70;99.90;;;;;;2072472;28;20030;-67
2022/11/20 03:13:08;;;;;;;59.38;28.75;;;-4.70;99.90;;;;;;2073233;28;20129;-67
2022/11/20 03:14:09;;;;;;;60.45;29.08;;;-4.70;99.90;;;;;;2072792;28;20034;-67
2022/11/20 03:15:10;;;;;;;60.20;29.50;;;-4.70;99.90;;;;;;2072664;28;20033;-67
2022/11/20 03:16:18;;;;;;;61.47;29.50;;;-4.70;99.90;;;;;;2072565;28;20054;-67
2022/11/20 03:17:19;;;;;;;58.88;28.40;;;-4.80;99.90;;;;;;2072615;28;20547;-67
2022/11/20 03:18:20;;;;;;;62.03;29.02;;;-4.80;99.90;;;;;;2072239;28;20038;-67
2022/11/20 03:19:20;;;;;;;61.70;30.02;;;-4.80;99.90;;;;;;2073245;28;20030;-67
2022/11/20 03:20:22;;;;;;;62.80;29.23;;;-4.80;99.90;;;;;;2072357;28;20524;-67
2022/11/20 03:21:23;;;;;;;58.15;29.13;;;-4.80;99.90;;;;;;2072561;28;20014;-67
2022/11/20 03:22:24;;;;;;;61.88;29.73;;;-4.80;99.90;;;;;;2072494;28;20022;-66
2022/11/20 03:23:25;;;;;;;62.35;29.83;;;-4.80;99.90;;;;;;2072498;28;20026;-67
2022/11/20 03:24:26;;;;;;;62.83;30.13;;;-4.80;99.90;;;;;;2071952;28;20072;-66
2022/11/20 03:25:27;;;;;;;69.43;31.38;;;-4.80;99.90;;;;;;2073058;28;20388;-67
2022/11/20 03:26:28;;;;;;;67.00;31.45;;;-4.80;99.90;;;;;;2073254;28;20499;-68
2022/11/20 03:27:33;;;;;;;66.93;31.75;;;-4.80;99.90;;;;;;2073107;28;20611;-67
2022/11/20 03:28:33;;;;;;;67.43;30.92;;;-4.80;99.90;;;;;;2072634;28;20523;-67
2022/11/20 03:29:35;;;;;;;64.68;30.90;;;-4.90;99.90;;;;;;2072362;28;20030;-66
2022/11/20 03:30:36;;;;;;;65.18;31.50;;;-4.90;99.90;;;;;;2073109;28;20415;-68
2022/11/20 03:31:42;;;;;;;62.20;30.05;;;-4.80;99.90;;;;;;2072310;28;20025;-67
2022/11/20 03:32:43;;;;;;;60.50;29.45;;;-4.80;99.90;;;;;;2072744;28;20515;-66
2022/11/20 03:33:44;;;;;;;64.78;30.23;;;-4.90;99.90;;;;;;2072570;28;20068;-66
2022/11/20 03:34:44;;;;;;;62.22;29.40;;;-4.90;99.90;;;;;;2072972;28;20026;-68
2022/11/20 03:35:45;;;;;;;61.40;29.58;;;-4.80;99.90;;;;;;2065590;28;20092;-66
2022/11/20 03:36:46;;;;;;;63.53;30.77;;;-4.80;99.90;;;;;;2073674;28;20486;-66
2022/11/20 03:37:47;;;;;;;61.33;29.70;;;-4.80;99.90;;;;;;2074173;28;20029;-68
2022/11/20 03:38:48;;;;;;;58.28;28.75;;;-4.90;99.90;;;;;;2073318;28;20034;-67
2022/11/20 03:39:48;;;;;;;62.22;30.23;;;-4.90;99.90;;;;;;2073573;28;20147;-67
2022/11/20 03:40:49;;;;;;;61.50;29.45;;;-4.90;99.90;;;;;;2074518;28;20041;-68
2022/11/20 03:41:50;;;;;;;62.47;29.58;;;-4.90;99.90;;;;;;2073746;28;20044;-67
2022/11/20 03:42:50;;;;;;;60.22;29.33;;;-4.90;99.90;;;;;;2073583;28;20514;-67
2022/11/20 03:43:56;;;;;;;58.45;28.27;;;-4.90;99.90;;;;;;2072962;28;20129;-66
2022/11/20 03:44:57;;;;;;;60.67;28.73;;;-4.90;99.90;;;;;;2072705;28;20081;-66
2022/11/20 03:45:58;;;;;;;58.22;28.50;;;-4.90;99.90;;;;;;2073425;28;20026;-67
2022/11/20 03:46:58;;;;;;;55.10;27.65;;;-4.90;99.90;;;;;;2074748;28;20040;-67
2022/11/20 03:47:59;;;;;;;57.00;28.30;;;-4.90;99.90;;;;;;2074739;28;20026;-67
2022/11/20 03:49:00;;;;;;;55.78;27.90;;;-4.90;99.90;;;;;;2066821;28;20619;-67
2022/11/20 03:50:01;;;;;;;54.92;27.23;;;-4.90;99.90;;;;;;2067563;28;20030;-66
2022/11/20 03:51:08;;;;;;;55.95;27.58;;;-4.90;99.90;;;;;;2074379;28;20026;-67
2022/11/20 03:52:09;;;;;;;57.83;27.30;;;-4.90;99.90;;;;;;2075162;28;20037;-67
2022/11/20 03:53:10;;;;;;;53.10;27.00;;;-4.90;99.90;;;;;;2075548;28;20417;-67
2022/11/20 03:54:11;;;;;;;57.55;27.08;;;-4.80;99.90;;;;;;2075506;28;20026;-67
2022/11/20 03:55:12;;;;;;;58.25;28.60;;;-4.80;99.90;;;;;;2075330;28;20124;-67
2022/11/20 03:56:15;;;;;;;56.33;27.25;;;-4.80;99.90;;;;;;2066936;28;20057;-66
2022/11/20 03:57:15;;;;;;;58.38;28.15;;;-4.80;99.90;;;;;;2058454;28;20026;-67
2022/11/20 03:58:16;;;;;;;58.80;28.27;;;-4.80;99.90;;;;;;2074913;28;20029;-67
2022/11/20 03:59:17;;;;;;;54.30;26.08;;;-4.90;99.90;;;;;;2075380;28;20029;-67
2022/11/20 04:00:17;;;;;;;54.85;27.42;;;-4.90;99.90;;;;;;2073925;28;20037;-68
2022/11/20 04:01:21;;;;;;;57.25;27.50;;;-4.90;99.90;;;;;;2075071;28;20032;-68
2022/11/20 04:02:22;;;;;;;55.40;27.13;;;-4.80;99.90;;;;;;2074046;28;20060;-67
2022/11/20 04:03:23;;;;;;;58.33;28.75;;;-4.90;99.90;;;;;;2066609;28;20019;-66
2022/11/20 04:04:24;;;;;;;54.35;27.77;;;-4.90;99.90;;;;;;2065766;28;20699;-66
2022/11/20 04:05:24;;;;;;;57.72;27.85;;;-4.90;99.90;;;;;;2064913;28;20512;-66
2022/11/20 04:06:30;;;;;;;56.72;27.70;;;-4.90;99.90;;;;;;2064279;28;20553;-66
2022/11/20 04:07:33;;;;;;;57.92;27.90;;;-4.90;99.90;;;;;;2072358;28;20064;-66
2022/11/20 04:08:34;;;;;;;55.13;28.02;;;-4.90;99.90;;;;;;2064264;28;20031;-66
2022/11/20 04:09:34;;;;;;;55.05;27.35;;;-4.90;99.90;;;;;;2056255;28;20089;-67
2022/11/20 04:10:35;;;;;;;61.22;28.52;;;-4.90;99.90;;;;;;2072447;28;20021;-66
2022/11/20 04:11:39;;;;;;;57.80;27.67;;;-4.90;99.90;;;;;;2073887;28;20049;-67
2022/11/20 04:12:39;;;;;;;56.70;27.75;;;-4.90;99.90;;;;;;2064793;28;20036;-67
2022/11/20 04:13:42;;;;;;;56.45;27.80;;;-4.90;99.90;;;;;;2056926;28;20029;-66
2022/11/20 04:14:42;;;;;;;57.47;28.40;;;-4.90;99.90;;;;;;2064749;28;20100;-66
2022/11/20 04:15:43;;;;;;;54.40;27.33;;;-4.90;99.90;;;;;;2073736;28;20698;-66
2022/11/20 04:16:44;;;;;;;56.75;27.85;;;-4.90;99.90;;;;;;2073299;28;20040;-66
2022/11/20 04:17:44;;;;;;;55.40;27.77;;;-4.90;99.90;;;;;;2074016;28;20559;-67
2022/11/20 04:18:46;;;;;;;59.60;28.23;;;-4.90;99.90;;;;;;2074416;28;20026;-68
2022/11/20 04:19:47;;;;;;;56.50;28.08;;;-4.70;99.90;;;;;;2074267;28;20030;-68
2022/11/20 04:20:48;;;;;;;57.63;27.67;;;-4.60;99.90;;;;;;2075018;28;20026;-67
2022/11/20 04:21:48;;;;;;;56.92;27.27;;;-4.60;99.90;;;;;;2073380;28;20092;-67
2022/11/20 04:22:52;;;;;;;56.72;26.92;;;-4.60;99.90;;;;;;2072155;28;20026;-67
2022/11/20 04:23:54;;;;;;;50.88;25.65;;;-4.60;99.90;;;;;;2072778;28;20475;-65
2022/11/20 04:24:55;;;;;;;54.72;26.50;;;-4.60;99.90;;;;;;2072461;28;20030;-67
2022/11/20 04:26:05;;;;;;;51.60;25.48;;;-4.60;99.90;;;;;;2072058;28;20619;-67
2022/11/20 04:27:06;;;;;;;55.95;27.00;;;-4.70;99.90;;;;;;2072119;28;20056;-67
2022/11/20 04:28:06;;;;;;;57.08;27.83;;;-4.60;99.90;;;;;;2071937;28;20041;-66
2022/11/20 04:29:11;;;;;;;55.08;26.60;;;-4.50;99.90;;;;;;2071853;28;20037;-68
2022/11/20 04:30:12;;;;;;;53.13;25.95;;;-4.40;99.90;;;;;;2072718;28;20077;-67
2022/11/20 04:31:19;;;;;;;52.53;25.27;;;-4.50;99.90;;;;;;2072762;28;20030;-67
2022/11/20 04:32:19;;;;;;;52.42;25.70;;;-4.50;99.90;;;;;;2072909;28;20399;-66
2022/11/20 04:33:20;;;;;;;51.55;25.27;;;-4.50;99.90;;;;;;2072945;28;20045;-66
2022/11/20 04:34:21;;;;;;;53.30;26.13;;;-4.50;99.90;;;;;;2072095;28;20120;-66
2022/11/20 04:35:21;;;;;;;58.53;27.08;;;-4.60;99.90;;;;;;2073597;28;20038;-67
2022/11/20 04:36:25;;;;;;;51.75;25.90;;;-4.60;99.90;;;;;;2078447;28;20101;-67
2022/11/20 04:37:25;;;;;;;54.85;27.08;;;-4.60;99.90;;;;;;2070420;28;20030;-66
2022/11/20 04:38:26;;;;;;;52.28;26.02;;;-4.70;99.90;;;;;;2068511;28;20034;-67
2022/11/20 04:39:27;;;;;;;53.17;26.63;;;-4.70;99.90;;;;;;2072394;28;20054;-67
2022/11/20 04:40:28;;;;;;;56.22;26.83;;;-4.70;99.90;;;;;;2072507;28;20033;-66
2022/11/20 04:41:32;;;;;;;52.70;25.55;;;-4.70;99.90;;;;;;2071605;28;20026;-67
2022/11/20 04:42:32;;;;;;;53.22;26.02;;;-4.70;99.90;;;;;;2071665;28;20030;-67
2022/11/20 04:43:34;;;;;;;52.92;25.42;;;-4.80;99.90;;;;;;2063918;28;20385;-68
2022/11/20 04:44:34;;;;;;;58.50;26.05;;;-4.80;99.90;;;;;;2055186;28;20023;-67
2022/11/20 04:45:35;;;;;;;52.60;25.50;;;-4.80;99.90;;;;;;2063560;28;20080;-67
2022/11/20 04:46:41;;;;;;;54.15;25.98;;;-4.80;99.90;;;;;;2071650;28;20040;-68
2022/11/20 04:47:42;;;;;;;55.05;26.05;;;-4.80;99.90;;;;;;2072162;28;20054;-69
2022/11/20 04:48:43;;;;;;;51.05;25.02;;;-4.80;99.90;;;;;;2072404;28;20030;-67
2022/11/20 04:49:43;;;;;;;53.10;25.48;;;-4.80;99.90;;;;;;2071604;28;20107;-67
2022/11/20 04:50:44;;;;;;;48.78;25.20;;;-4.80;99.90;;;;;;2071597;28;20095;-67
2022/11/20 04:51:45;;;;;;;49.88;25.35;;;-4.80;99.90;;;;;;2071717;28;20393;-67
2022/11/20 04:52:45;;;;;;;51.22;25.20;;;-4.80;99.90;;;;;;2071742;28;20037;-67
2022/11/20 04:53:46;;;;;;;48.67;24.45;;;-4.80;99.90;;;;;;2071608;28;20054;-67
2022/11/20 04:54:47;;;;;;;54.05;25.88;;;-4.80;99.90;;;;;;2071385;28;20496;-68
2022/11/20 04:55:48;;;;;;;51.25;25.17;;;-4.80;99.90;;;;;;2072427;28;20029;-67
2022/11/20 04:56:49;;;;;;;52.47;25.35;;;-4.80;99.90;;;;;;2072466;28;20407;-67
2022/11/20 04:57:51;;;;;;;51.33;24.45;;;-4.80;99.90;;;;;;2072293;28;20258;-67
2022/11/20 04:58:52;;;;;;;53.00;24.45;;;-4.80;99.90;;;;;;2072277;28;20036;-69
2022/11/20 04:59:53;;;;;;;50.55;24.42;;;-4.80;99.90;;;;;;2072174;28;20053;-67
2022/11/20 05:00:53;;;;;;;54.67;26.25;;;-4.80;99.90;;;;;;2071580;28;20037;-67
2022/11/20 05:01:54;;;;;;;51.55;24.70;;;-4.80;99.90;;;;;;2071448;28;20488;-68
2022/11/20 05:02:55;;;;;;;53.22;26.05;;;-4.80;99.90;;;;;;2072206;28;20037;-68
2022/11/20 05:03:56;;;;;;;53.42;25.13;;;-4.80;99.90;;;;;;2072111;28;20794;-67
2022/11/20 05:04:56;;;;;;;55.13;25.73;;;-4.80;99.90;;;;;;2071940;28;20048;-66
2022/11/20 05:06:01;;;;;;;53.38;24.73;;;-4.70;99.90;;;;;;2071940;28;20373;-67
2022/11/20 05:07:02;;;;;;;53.55;25.73;;;-4.70;99.90;;;;;;2072105;28;20032;-67
2022/11/20 05:08:03;;;;;;;53.30;25.23;;;-4.70;99.90;;;;;;2071944;28;20045;-67
2022/11/20 05:09:03;;;;;;;52.03;25.55;;;-4.70;99.90;;;;;;2071131;28;20854;-66
2022/11/20 05:10:05;;;;;;;59.63;28.35;;;-4.70;99.90;;;;;;2071414;28;20065;-67
2022/11/20 05:11:08;;;;;;;75.15;36.53;;;-4.70;99.90;;;;;;2071268;28;20076;-67
2022/11/20 05:12:09;;;;;;;96.25;48.38;;;-4.70;99.90;;;;;;2071008;28;20034;-67
2022/11/20 05:13:09;;;;;;;104.10;52.28;;;-4.70;99.90;;;;;;2071376;28;20096;-67
2022/11/20 05:14:10;;;;;;;109.38;53.22;;;-4.70;99.90;;;;;;2071143;28;20037;-67
2022/11/20 05:15:11;;;;;;;113.22;55.42;;;-4.80;99.90;;;;;;2071904;28;20117;-67
2022/11/20 05:16:20;;;;;;;121.47;61.15;;;-4.80;99.90;;;;;;2071191;28;20026;-67
2022/11/20 05:17:21;;;;;;;111.03;54.45;;;-4.80;99.90;;;;;;2071333;28;20543;-67
2022/11/20 05:18:22;;;;;;;105.60;52.88;;;-4.80;99.90;;;;;;2071960;28;20041;-67